Time;durP1;ratioP1;P1;durP2;ratioP2;P2;SDS_P1;SDS_P2;PMS_P1;PMS_P2;Temp;Humidity;BMP_temperature;BMP_pressure;BME280_temperature;BME280_humidity;BME280_pressure;Samples;Min_cycle;Max_cycle;Signal;HPM_P1;HPM_P2
2021/11/11 00:01:03;;;;;;;17.83;14.32;;;10.30;99.90;;;;;;5135254;27;20214;-66
2021/11/11 00:03:30;;;;;;;15.93;14.23;;;10.30;99.90;;;;;;5134836;27;20275;-65
2021/11/11 00:05:58;;;;;;;17.90;14.52;;;10.40;99.90;;;;;;5135344;27;20552;-65
2021/11/11 00:08:25;;;;;;;17.23;15.05;;;10.30;99.90;;;;;;5134838;27;20242;-65
2021/11/11 00:10:52;;;;;;;18.85;15.52;;;10.30;99.90;;;;;;5135069;27;20250;-65
2021/11/11 00:13:20;;;;;;;16.05;14.38;;;10.30;99.90;;;;;;5135174;27;20226;-65
2021/11/11 00:15:48;;;;;;;15.82;14.23;;;10.30;99.90;;;;;;5134665;27;20782;-66
2021/11/11 00:18:17;;;;;;;18.70;14.90;;;10.20;99.90;;;;;;5134998;27;20276;-65
2021/11/11 00:20:44;;;;;;;19.42;13.30;;;10.20;99.90;;;;;;5134681;27;20567;-65
2021/11/11 00:23:12;;;;;;;17.98;14.18;;;10.20;99.90;;;;;;5134603;27;20218;-65
2021/11/11 00:25:46;;;;;;;17.80;15.50;;;10.10;99.90;;;;;;5134507;27;20248;-65
2021/11/11 00:28:13;;;;;;;20.38;16.17;;;10.10;99.90;;;;;;5134613;27;20304;-65
2021/11/11 00:30:40;;;;;;;20.23;15.35;;;10.10;99.90;;;;;;5127260;27;20237;-65
2021/11/11 00:33:07;;;;;;;17.30;13.88;;;10.10;99.90;;;;;;5134615;27;20229;-65
2021/11/11 00:35:35;;;;;;;15.23;13.77;;;10.10;99.90;;;;;;5134603;27;20684;-65
2021/11/11 00:38:02;;;;;;;15.40;13.80;;;10.10;99.90;;;;;;5134450;27;20235;-65
2021/11/11 00:40:31;;;;;;;16.70;14.98;;;10.10;99.90;;;;;;5134302;27;20283;-65
2021/11/11 00:42:58;;;;;;;23.42;17.60;;;10.10;99.90;;;;;;5128974;27;20686;-65
2021/11/11 00:45:26;;;;;;;17.17;15.25;;;10.00;99.90;;;;;;5134214;27;20222;-66
2021/11/11 00:47:54;;;;;;;15.63;13.77;;;10.10;99.90;;;;;;5134397;27;20711;-65
2021/11/11 00:50:24;;;;;;;18.40;16.40;;;10.00;99.90;;;;;;5134345;27;20229;-65
2021/11/11 00:52:52;;;;;;;16.95;14.52;;;10.00;99.90;;;;;;5133984;27;21000;-65
2021/11/11 00:55:20;;;;;;;19.08;14.95;;;10.00;99.90;;;;;;5128878;27;20222;-65
2021/11/11 00:57:47;;;;;;;17.90;15.20;;;10.10;99.90;;;;;;5128065;27;20246;-65
2021/11/11 01:00:16;;;;;;;19.63;14.48;;;10.00;99.90;;;;;;5126504;27;20226;-65
2021/11/11 01:02:45;;;;;;;14.52;12.98;;;10.00;99.90;;;;;;5133753;27;20217;-66
2021/11/11 01:05:12;;;;;;;17.48;15.27;;;10.00;99.90;;;;;;5134389;27;20573;-65
2021/11/11 01:07:39;;;;;;;19.02;14.65;;;10.00;99.90;;;;;;5133641;27;20230;-65
2021/11/11 01:10:10;;;;;;;15.45;13.73;;;10.00;99.90;;;;;;5133849;27;20237;-65
2021/11/11 01:12:38;;;;;;;16.52;14.05;;;9.90;99.90;;;;;;5133888;27;20571;-65
2021/11/11 01:15:06;;;;;;;20.02;14.88;;;9.90;99.90;;;;;;5134066;27;20225;-65
2021/11/11 01:17:33;;;;;;;15.75;13.98;;;9.90;99.90;;;;;;5133463;27;20274;-65
2021/11/11 01:20:00;;;;;;;15.60;13.98;;;9.90;99.90;;;;;;5134078;27;20671;-65
2021/11/11 01:22:27;;;;;;;17.83;14.60;;;9.90;99.90;;;;;;5127405;27;20222;-65
2021/11/11 01:24:54;;;;;;;18.65;16.65;;;9.90;99.90;;;;;;5133390;27;20241;-66
2021/11/11 01:27:23;;;;;;;18.85;15.77;;;9.90;99.90;;;;;;5132741;27;20226;-65
2021/11/11 01:29:50;;;;;;;17.88;15.55;;;9.90;99.90;;;;;;5131667;27;20238;-64
2021/11/11 01:32:17;;;;;;;16.90;15.15;;;9.90;99.90;;;;;;5133533;27;20233;-65
2021/11/11 01:34:44;;;;;;;17.42;14.85;;;9.80;99.90;;;;;;5133385;27;20225;-65
2021/11/11 01:37:11;;;;;;;16.73;14.63;;;9.80;99.90;;;;;;5133522;27;20228;-65
2021/11/11 01:39:38;;;;;;;18.65;15.13;;;9.70;99.90;;;;;;5133004;27;20609;-65
2021/11/11 01:42:05;;;;;;;18.83;16.00;;;9.70;99.90;;;;;;5132497;27;20222;-64
2021/11/11 01:44:33;;;;;;;17.52;15.50;;;9.70;99.90;;;;;;5133246;27;20248;-65
2021/11/11 01:47:00;;;;;;;17.02;15.15;;;9.70;99.90;;;;;;5133174;27;20222;-65
2021/11/11 01:49:27;;;;;;;22.30;15.40;;;9.70;99.90;;;;;;5133542;27;20241;-65
2021/11/11 01:51:55;;;;;;;18.00;14.80;;;9.70;99.90;;;;;;5133111;27;20632;-65
2021/11/11 01:54:22;;;;;;;19.10;16.80;;;9.60;99.90;;;;;;5133688;27;20214;-65
2021/11/11 01:56:49;;;;;;;16.38;14.70;;;9.60;99.90;;;;;;5131648;27;20218;-64
2021/11/11 01:59:16;;;;;;;17.33;15.50;;;9.60;99.90;;;;;;5133355;27;20234;-64
2021/11/11 02:01:44;;;;;;;17.48;15.77;;;9.60;99.90;;;;;;5132947;27;20695;-65
2021/11/11 02:04:11;;;;;;;18.10;16.17;;;9.50;99.90;;;;;;5133632;27;20679;-65
2021/11/11 02:06:38;;;;;;;17.17;15.40;;;9.50;99.90;;;;;;5133004;27;20237;-65
2021/11/11 02:09:07;;;;;;;18.40;16.17;;;9.50;99.90;;;;;;5133144;27;20225;-64
2021/11/11 02:11:34;;;;;;;19.90;15.48;;;9.50;99.90;;;;;;5132641;27;20214;-65
2021/11/11 02:14:01;;;;;;;17.02;15.23;;;9.50;99.90;;;;;;5133378;27;20225;-65
2021/11/11 02:16:28;;;;;;;18.58;15.98;;;9.50;99.90;;;;;;5133278;27;20221;-65
2021/11/11 02:18:56;;;;;;;20.05;15.73;;;9.50;99.90;;;;;;5133129;27;20660;-65
2021/11/11 02:21:24;;;;;;;16.75;14.65;;;9.50;99.90;;;;;;5133067;27;20218;-65
2021/11/11 02:23:51;;;;;;;19.05;15.98;;;9.50;99.90;;;;;;5132776;27;20233;-65
2021/11/11 02:26:19;;;;;;;17.67;15.80;;;9.50;99.90;;;;;;5124188;27;20225;-65
2021/11/11 02:28:47;;;;;;;16.27;14.57;;;9.50;99.90;;;;;;5132454;27;20247;-65
2021/11/11 02:31:14;;;;;;;19.10;15.57;;;9.50;99.90;;;;;;5133381;27;20226;-65
2021/11/11 02:33:41;;;;;;;22.08;18.02;;;9.40;99.90;;;;;;5132587;27;20274;-64
2021/11/11 02:36:09;;;;;;;16.90;15.10;;;9.40;99.90;;;;;;5133102;27;20309;-65
2021/11/11 02:38:37;;;;;;;17.70;15.45;;;9.40;99.90;;;;;;5135486;27;20249;-64
2021/11/11 02:41:04;;;;;;;18.17;15.30;;;9.40;99.90;;;;;;5136973;27;20233;-65
2021/11/11 02:43:31;;;;;;;18.35;15.02;;;9.30;99.90;;;;;;5136380;27;20565;-65
2021/11/11 02:45:58;;;;;;;17.52;15.13;;;9.30;99.90;;;;;;5136486;27;20613;-65
2021/11/11 02:48:26;;;;;;;16.08;14.40;;;9.30;99.90;;;;;;5136787;27;20309;-65
2021/11/11 02:50:55;;;;;;;16.27;14.57;;;9.30;99.90;;;;;;5136511;27;20589;-64
2021/11/11 02:53:22;;;;;;;19.55;17.30;;;9.30;99.90;;;;;;5136680;27;20704;-64
2021/11/11 02:55:54;;;;;;;17.90;16.00;;;9.30;99.90;;;;;;5126556;27;20229;-64
2021/11/11 02:58:23;;;;;;;24.30;15.60;;;9.20;99.90;;;;;;5133651;27;20233;-64
2021/11/11 03:00:52;;;;;;;18.42;15.00;;;9.20;99.90;;;;;;5136158;27;20226;-64
2021/11/11 03:03:20;;;;;;;18.63;14.77;;;9.20;99.90;;;;;;5136427;27;20229;-64
2021/11/11 03:05:47;;;;;;;16.52;14.15;;;9.20;99.90;;;;;;5135994;27;20233;-64
2021/11/11 03:08:15;;;;;;;16.85;13.60;;;9.10;99.90;;;;;;5136391;27;20224;-65
2021/11/11 03:10:43;;;;;;;19.85;15.40;;;9.20;99.90;;;;;;5135946;27;20671;-65
2021/11/11 03:13:12;;;;;;;18.58;16.23;;;9.20;99.90;;;;;;5136389;27;20218;-65
2021/11/11 03:15:41;;;;;;;16.13;14.35;;;9.10;99.90;;;;;;5136011;27;20218;-65
2021/11/11 03:18:08;;;;;;;17.70;15.07;;;9.10;99.90;;;;;;5136112;27;20225;-65
2021/11/11 03:20:35;;;;;;;18.65;15.75;;;9.10;99.90;;;;;;5136247;27;20233;-64
2021/11/11 03:23:03;;;;;;;18.88;14.93;;;9.00;99.90;;;;;;5129108;27;20668;-65
2021/11/11 03:25:32;;;;;;;18.60;15.25;;;8.90;99.90;;;;;;5135990;27;20228;-64
2021/11/11 03:28:00;;;;;;;18.27;14.38;;;8.90;99.90;;;;;;5135465;27;20555;-64
2021/11/11 03:30:29;;;;;;;17.00;15.13;;;8.90;99.90;;;;;;5134370;27;20238;-63
2021/11/11 03:33:01;;;;;;;17.27;15.57;;;8.90;99.90;;;;;;5135538;27;20229;-63
2021/11/11 03:35:28;;;;;;;16.60;14.65;;;8.90;99.90;;;;;;5135740;27;20233;-63
2021/11/11 03:37:57;;;;;;;30.95;24.38;;;8.90;99.90;;;;;;5135564;27;20632;-63
2021/11/11 03:40:29;;;;;;;17.33;15.57;;;8.90;99.90;;;;;;5135591;27;20230;-63
2021/11/11 03:42:57;;;;;;;20.80;15.65;;;8.90;99.90;;;;;;5135179;27;20233;-63
2021/11/11 03:45:24;;;;;;;16.98;14.07;;;8.90;99.90;;;;;;5135845;27;20303;-63
2021/11/11 03:47:53;;;;;;;19.42;16.23;;;8.80;99.90;;;;;;5127613;27;20219;-64
2021/11/11 03:50:21;;;;;;;16.65;14.93;;;8.80;99.90;;;;;;5133420;27;20730;-63
2021/11/11 03:52:52;;;;;;;19.80;15.55;;;8.70;99.90;;;;;;5135227;27;20229;-63
2021/11/11 03:55:22;;;;;;;16.65;14.18;;;8.70;99.90;;;;;;5134804;27;20301;-63
2021/11/11 03:57:53;;;;;;;18.75;14.63;;;8.70;99.90;;;;;;5135059;27;20266;-63
2021/11/11 04:00:23;;;;;;;17.85;15.65;;;8.70;99.90;;;;;;5134843;27;20230;-63
2021/11/11 04:02:51;;;;;;;16.52;14.63;;;8.60;99.90;;;;;;5134947;27;20605;-64
2021/11/11 04:05:19;;;;;;;17.25;15.40;;;8.60;99.90;;;;;;5135571;27;20588;-63
2021/11/11 04:07:46;;;;;;;16.35;14.52;;;8.60;99.90;;;;;;5134666;27;20226;-64
2021/11/11 04:10:16;;;;;;;16.67;14.88;;;8.60;99.90;;;;;;5135311;27;20225;-64
2021/11/11 04:12:43;;;;;;;17.30;14.23;;;8.60;99.90;;;;;;5134926;27;20233;-64
2021/11/11 04:15:11;;;;;;;17.60;14.50;;;8.60;99.90;;;;;;5135221;27;20243;-64
2021/11/11 04:17:39;;;;;;;23.58;17.50;;;8.60;99.90;;;;;;5133562;27;20225;-64
2021/11/11 04:20:09;;;;;;;19.00;16.25;;;8.60;99.90;;;;;;5133209;27;20237;-64
2021/11/11 04:22:37;;;;;;;20.92;16.73;;;8.60;99.90;;;;;;5124344;27;20222;-64
2021/11/11 04:25:06;;;;;;;17.20;15.45;;;8.50;99.90;;;;;;5114150;27;20218;-64
2021/11/11 04:27:35;;;;;;;16.52;14.88;;;8.50;99.90;;;;;;5114014;27;20233;-66
2021/11/11 04:30:13;;;;;;;18.50;15.40;;;8.50;99.90;;;;;;5113134;27;20291;-64
2021/11/11 04:32:40;;;;;;;17.02;14.57;;;8.50;99.90;;;;;;5113645;27;20279;-62
2021/11/11 04:35:10;;;;;;;18.55;15.38;;;8.40;99.90;;;;;;5113279;27;20222;-63
2021/11/11 04:37:47;;;;;;;17.42;15.63;;;8.40;99.90;;;;;;5113444;27;20223;-63
2021/11/11 05:02:59;;;;;;;19.20;17.30;;;8.20;99.90;;;;;;5027844;28;20333;-64
2021/11/11 05:05:27;;;;;;;17.88;15.70;;;8.10;99.90;;;;;;5064951;28;20250;-63
2021/11/11 05:07:54;;;;;;;19.83;17.42;;;8.10;99.90;;;;;;5069275;28;20228;-63
2021/11/11 05:10:23;;;;;;;20.60;18.40;;;8.10;99.90;;;;;;5069822;28;20228;-64
2021/11/11 05:12:50;;;;;;;21.05;18.25;;;8.10;99.90;;;;;;5069271;28;20666;-64
2021/11/11 05:15:18;;;;;;;16.23;14.52;;;8.10;99.90;;;;;;5064161;28;20252;-64
2021/11/11 05:17:46;;;;;;;18.73;15.85;;;8.10;99.90;;;;;;5049441;28;20231;-64
2021/11/11 05:20:14;;;;;;;18.13;16.13;;;8.10;99.90;;;;;;5046711;28;20264;-64
2021/11/11 05:22:42;;;;;;;17.38;15.18;;;8.10;99.90;;;;;;5035279;28;20220;-65
2021/11/11 05:25:10;;;;;;;16.35;14.60;;;8.10;99.90;;;;;;5034991;28;20248;-64
2021/11/11 05:27:42;;;;;;;17.10;15.00;;;8.10;99.90;;;;;;5044827;28;20279;-64
2021/11/11 05:30:10;;;;;;;18.55;14.88;;;8.10;99.90;;;;;;5059167;28;21009;-64
2021/11/11 05:32:37;;;;;;;18.30;16.33;;;8.10;99.90;;;;;;5069304;28;20224;-64
2021/11/11 05:35:06;;;;;;;16.02;14.32;;;8.00;99.90;;;;;;5068923;28;20239;-64
2021/11/11 05:37:34;;;;;;;19.63;15.57;;;8.10;99.90;;;;;;5069202;28;20220;-64
2021/11/11 05:40:01;;;;;;;19.55;16.73;;;8.10;99.90;;;;;;5068856;28;20577;-64
2021/11/11 05:42:28;;;;;;;19.42;16.08;;;8.10;99.90;;;;;;5056183;28;20994;-64
2021/11/11 05:44:56;;;;;;;18.80;16.00;;;8.10;99.90;;;;;;5028926;28;20602;-64
2021/11/11 05:47:23;;;;;;;18.80;16.42;;;8.10;99.90;;;;;;5029326;28;20225;-64
2021/11/11 05:49:50;;;;;;;21.05;16.25;;;8.10;99.90;;;;;;5028745;28;20237;-64
2021/11/11 05:52:17;;;;;;;25.67;18.15;;;8.10;99.90;;;;;;5029037;28;20234;-65
2021/11/11 05:54:44;;;;;;;19.92;14.85;;;8.10;99.90;;;;;;5029161;28;20687;-65
2021/11/11 05:57:11;;;;;;;22.08;16.95;;;8.10;99.90;;;;;;5032846;28;20252;-64
2021/11/11 05:59:39;;;;;;;20.42;16.30;;;8.10;99.90;;;;;;5028999;28;20237;-64
2021/11/11 06:02:07;;;;;;;17.02;15.23;;;8.10;99.90;;;;;;5028648;28;20610;-64
2021/11/11 06:04:35;;;;;;;17.17;14.50;;;8.10;99.90;;;;;;5021395;28;20222;-63
2021/11/11 06:07:02;;;;;;;18.25;15.65;;;8.10;99.90;;;;;;5015486;28;20218;-64
2021/11/11 06:09:29;;;;;;;19.98;15.48;;;8.10;99.90;;;;;;5015593;28;20225;-63
2021/11/11 06:11:56;;;;;;;18.50;14.95;;;8.10;99.90;;;;;;5015244;28;20225;-64
2021/11/11 06:14:23;;;;;;;20.20;16.13;;;8.10;99.90;;;;;;5015606;28;20234;-64
2021/11/11 06:16:50;;;;;;;16.02;14.35;;;8.10;99.90;;;;;;5015307;28;20226;-64
2021/11/11 06:19:19;;;;;;;19.40;16.52;;;8.20;99.90;;;;;;5015421;28;20230;-64
2021/11/11 06:21:47;;;;;;;19.10;16.25;;;8.20;99.90;;;;;;5015546;28;20572;-64
2021/11/11 06:24:15;;;;;;;21.75;17.30;;;8.20;99.90;;;;;;5014655;28;20229;-64
2021/11/11 06:26:42;;;;;;;20.25;16.10;;;8.10;99.90;;;;;;5015489;28;20603;-64
2021/11/11 06:29:10;;;;;;;18.35;15.68;;;8.10;99.90;;;;;;5014806;28;20226;-64
2021/11/11 06:31:37;;;;;;;25.02;18.75;;;8.20;99.90;;;;;;5015313;28;20222;-64
2021/11/11 06:34:04;;;;;;;22.13;17.25;;;8.10;99.90;;;;;;5014770;28;20226;-64
2021/11/11 06:36:33;;;;;;;20.25;16.63;;;8.10;99.90;;;;;;5015292;28;20229;-64
2021/11/11 06:39:00;;;;;;;25.75;19.70;;;8.10;99.90;;;;;;5014550;28;20233;-64
2021/11/11 06:41:27;;;;;;;20.52;16.27;;;8.20;99.90;;;;;;5014970;28;20236;-64
2021/11/11 06:43:54;;;;;;;23.00;16.52;;;8.20;99.90;;;;;;5032923;28;20570;-64
2021/11/11 06:46:21;;;;;;;25.38;17.08;;;8.20;99.90;;;;;;5034942;28;20283;-64
2021/11/11 06:48:48;;;;;;;26.88;20.77;;;8.20;99.90;;;;;;5034527;28;20233;-64
2021/11/11 06:51:15;;;;;;;24.13;16.55;;;8.20;99.90;;;;;;5034382;28;20225;-64
2021/11/11 06:53:44;;;;;;;17.30;15.50;;;8.10;99.90;;;;;;5034371;28;20594;-65
2021/11/11 06:56:11;;;;;;;20.20;15.32;;;8.10;99.90;;;;;;5034212;28;20710;-63
2021/11/11 06:58:38;;;;;;;19.67;15.20;;;8.10;99.90;;;;;;5018294;28;20233;-63
2021/11/11 07:01:06;;;;;;;19.63;15.40;;;8.10;99.90;;;;;;5014173;28;20321;-64
2021/11/11 07:03:33;;;;;;;20.20;17.20;;;8.10;99.90;;;;;;5014682;28;20233;-64
2021/11/11 07:06:01;;;;;;;19.30;16.27;;;8.10;99.90;;;;;;5014106;28;20249;-64
2021/11/11 07:08:28;;;;;;;17.90;16.00;;;8.10;99.90;;;;;;5014464;28;20226;-64
2021/11/11 07:10:56;;;;;;;28.45;21.52;;;8.10;99.90;;;;;;5014125;28;20573;-64
2021/11/11 07:13:24;;;;;;;26.00;20.80;;;8.10;99.90;;;;;;5014559;28;20688;-64
2021/11/11 07:15:51;;;;;;;20.13;17.15;;;8.20;99.90;;;;;;5013491;28;20226;-64
2021/11/11 07:18:18;;;;;;;22.23;19.15;;;8.10;99.90;;;;;;5013854;28;20228;-63
2021/11/11 07:20:49;;;;;;;26.90;18.15;;;8.20;99.90;;;;;;5014247;28;20234;-64
2021/11/11 07:23:19;;;;;;;22.17;19.20;;;8.20;99.90;;;;;;5013665;28;20226;-64
2021/11/11 07:25:47;;;;;;;21.02;18.73;;;8.20;99.90;;;;;;5014424;28;20222;-64
2021/11/11 07:28:16;;;;;;;24.50;18.92;;;8.20;99.90;;;;;;5013696;28;20229;-65
2021/11/11 07:30:43;;;;;;;25.90;20.05;;;8.20;99.90;;;;;;5042960;28;20244;-65
2021/11/11 07:33:11;;;;;;;21.70;19.23;;;8.20;99.90;;;;;;5053328;28;20566;-65
2021/11/11 07:35:39;;;;;;;22.92;17.85;;;8.20;99.90;;;;;;5053977;28;20224;-64
2021/11/11 07:38:07;;;;;;;24.83;18.17;;;8.30;99.90;;;;;;5053032;28;20681;-65
2021/11/11 07:40:35;;;;;;;27.02;18.55;;;8.30;99.90;;;;;;5053954;28;20596;-65
2021/11/11 07:43:03;;;;;;;29.20;18.95;;;8.30;99.90;;;;;;5030533;28;20222;-65
2021/11/11 07:45:32;;;;;;;19.85;17.70;;;8.30;99.90;;;;;;5014031;28;20222;-64
2021/11/11 07:48:01;;;;;;;24.55;19.00;;;8.40;99.90;;;;;;5013574;28;20229;-64
2021/11/11 07:50:29;;;;;;;26.80;18.80;;;8.40;99.90;;;;;;5013666;28;20560;-64
2021/11/11 07:52:59;;;;;;;26.77;17.60;;;8.40;99.90;;;;;;5012965;28;20225;-64
2021/11/11 07:55:26;;;;;;;24.35;18.60;;;8.50;99.90;;;;;;5014032;28;20226;-64
2021/11/11 07:57:54;;;;;;;22.95;18.27;;;8.50;99.90;;;;;;5021072;28;20687;-64
2021/11/11 08:00:21;;;;;;;23.75;17.38;;;8.50;99.90;;;;;;5013030;28;20226;-64
2021/11/11 08:02:50;;;;;;;20.42;18.25;;;8.60;99.90;;;;;;5013996;28;20595;-64
2021/11/11 08:05:19;;;;;;;27.58;19.42;;;8.60;99.90;;;;;;5013695;28;20226;-64
2021/11/11 08:07:48;;;;;;;21.23;18.15;;;8.60;99.90;;;;;;5013210;28;20233;-64
2021/11/11 08:10:17;;;;;;;32.95;22.10;;;8.60;99.90;;;;;;5013601;28;20234;-64
2021/11/11 08:12:44;;;;;;;28.75;20.85;;;8.70;99.90;;;;;;5013112;28;20309;-64
2021/11/11 08:15:11;;;;;;;31.55;19.77;;;8.70;99.90;;;;;;5013527;28;20557;-64
2021/11/11 08:17:39;;;;;;;25.10;20.00;;;8.70;99.90;;;;;;5013138;28;20221;-64
2021/11/11 08:20:09;;;;;;;25.48;18.60;;;8.80;99.90;;;;;;5013424;28;20241;-64
2021/11/11 08:22:36;;;;;;;26.60;20.95;;;8.80;99.90;;;;;;5013207;28;20561;-64
2021/11/11 08:25:06;;;;;;;21.77;18.33;;;8.80;99.90;;;;;;5018085;28;20284;-64
2021/11/11 08:27:34;;;;;;;24.58;19.98;;;8.90;99.90;;;;;;5012802;28;20233;-64
2021/11/11 08:30:01;;;;;;;31.13;22.80;;;8.90;99.90;;;;;;5013255;28;20553;-64
2021/11/11 08:32:28;;;;;;;28.25;21.52;;;9.00;99.90;;;;;;5013233;28;20233;-64
2021/11/11 08:34:55;;;;;;;26.65;20.00;;;9.00;99.90;;;;;;5012984;28;20996;-64
2021/11/11 08:37:23;;;;;;;25.52;21.10;;;9.10;99.90;;;;;;5013024;28;20221;-64
2021/11/11 08:39:50;;;;;;;31.33;20.88;;;9.20;99.90;;;;;;5012740;28;20234;-63
2021/11/11 08:42:17;;;;;;;22.88;17.88;;;9.20;99.90;;;;;;5018008;28;20221;-64
2021/11/11 08:44:47;;;;;;;24.27;19.98;;;9.30;99.90;;;;;;5032270;28;20236;-64
2021/11/11 08:47:18;;;;;;;22.58;18.98;;;9.40;99.90;;;;;;5032995;28;20233;-64
2021/11/11 08:49:51;;;;;;;23.17;19.17;;;9.40;99.90;;;;;;5032310;28;20225;-65
2021/11/11 08:52:18;;;;;;;26.42;20.27;;;9.40;99.90;;;;;;5032500;28;20299;-65
2021/11/11 08:54:47;;;;;;;28.20;19.98;;;9.50;99.90;;;;;;5032091;28;20229;-65
2021/11/11 08:57:14;;;;;;;21.55;18.35;;;9.50;99.90;;;;;;5032677;28;20703;-65
2021/11/11 08:59:41;;;;;;;21.02;18.02;;;9.50;99.90;;;;;;5013064;28;20264;-64
2021/11/11 09:02:10;;;;;;;20.98;18.10;;;9.60;99.90;;;;;;5012843;28;20226;-64
2021/11/11 09:04:37;;;;;;;21.00;16.88;;;9.60;99.90;;;;;;5012542;28;20726;-65
2021/11/11 09:07:04;;;;;;;26.02;18.83;;;9.70;99.90;;;;;;5012910;28;20588;-65
2021/11/11 09:09:31;;;;;;;19.77;17.38;;;9.70;99.90;;;;;;5012784;28;20253;-64
2021/11/11 09:12:00;;;;;;;23.10;18.85;;;9.80;99.90;;;;;;5012571;28;21006;-63
2021/11/11 09:14:27;;;;;;;23.85;19.73;;;9.80;99.90;;;;;;5012520;28;20226;-64
2021/11/11 09:16:54;;;;;;;23.38;19.30;;;9.90;99.90;;;;;;5012518;28;20229;-63
2021/11/11 09:19:21;;;;;;;24.23;19.48;;;9.90;99.90;;;;;;5012740;28;20238;-63
2021/11/11 09:21:48;;;;;;;24.48;20.52;;;10.00;99.90;;;;;;5012350;28;20225;-63
2021/11/11 09:24:15;;;;;;;20.33;17.00;;;10.00;99.90;;;;;;5015328;28;20236;-64
2021/11/11 09:26:42;;;;;;;21.13;18.15;;;10.00;99.90;;;;;;5032007;28;20234;-64
2021/11/11 09:29:11;;;;;;;19.73;15.77;;;10.10;99.90;;;;;;5032406;28;20241;-64
2021/11/11 09:31:39;;;;;;;24.83;15.32;;;10.10;99.90;;;;;;5024366;28;20226;-65
2021/11/11 09:34:07;;;;;;;21.58;16.45;;;10.20;99.90;;;;;;5012196;28;20245;-64
2021/11/11 09:36:35;;;;;;;20.08;15.48;;;10.20;99.90;;;;;;5012576;28;20230;-63
2021/11/11 09:39:03;;;;;;;22.52;16.15;;;10.10;99.90;;;;;;5012778;28;20349;-64
2021/11/11 09:41:31;;;;;;;18.08;13.93;;;10.20;99.90;;;;;;5016089;28;20304;-63
2021/11/11 09:43:58;;;;;;;19.90;15.00;;;10.20;99.90;;;;;;5015665;28;20234;-64
2021/11/11 09:46:26;;;;;;;25.83;16.63;;;10.20;99.90;;;;;;5016485;28;20233;-64
2021/11/11 09:48:54;;;;;;;22.77;14.63;;;10.10;99.90;;;;;;5015760;28;20237;-64
2021/11/11 09:51:23;;;;;;;18.13;13.40;;;10.10;99.90;;;;;;5016020;28;20707;-64
2021/11/11 09:54:06;;;;;;;23.88;16.27;;;10.10;99.90;;;;;;5015579;28;20234;-64
2021/11/11 09:59:20;;;;;;;26.25;18.35;;;10.10;99.90;;;;;;5026106;28;20766;-64
2021/11/11 10:01:48;;;;;;;26.52;19.02;;;10.10;99.90;;;;;;5015770;28;20230;-63
2021/11/11 10:04:16;;;;;;;23.77;17.48;;;10.00;99.90;;;;;;5015915;28;20301;-64
2021/11/11 10:06:43;;;;;;;33.53;22.45;;;10.10;99.90;;;;;;5015460;28;20222;-65
2021/11/11 10:09:16;;;;;;;33.58;20.58;;;10.10;99.90;;;;;;5015779;28;20226;-65
2021/11/11 10:11:50;;;;;;;30.45;20.33;;;10.10;99.90;;;;;;5015370;28;20226;-64
2021/11/11 10:14:20;;;;;;;31.33;19.50;;;10.10;99.90;;;;;;5015561;28;20665;-65
2021/11/11 10:16:52;;;;;;;36.58;21.63;;;10.20;99.90;;;;;;5015551;28;21028;-65
2021/11/11 10:19:20;;;;;;;28.55;18.13;;;10.20;99.90;;;;;;5015551;28;20234;-65
2021/11/11 10:21:50;;;;;;;23.17;16.67;;;10.30;99.90;;;;;;5015180;28;20229;-65
2021/11/11 10:24:34;;;;;;;26.10;16.30;;;10.30;99.90;;;;;;5022773;28;20300;-65
2021/11/11 10:27:24;;;;;;;26.23;16.83;;;10.30;99.90;;;;;;5035632;28;20594;-65
2021/11/11 10:29:53;;;;;;;26.35;20.30;;;10.40;99.90;;;;;;5035105;28;20275;-65
2021/11/11 10:32:24;;;;;;;27.63;18.98;;;10.40;99.90;;;;;;5035171;28;20267;-65
2021/11/11 10:34:54;;;;;;;26.08;18.83;;;10.50;99.90;;;;;;5034639;28;20277;-64
2021/11/11 10:37:23;;;;;;;30.00;20.90;;;10.60;99.90;;;;;;5034866;28;20240;-63
2021/11/11 10:39:58;;;;;;;25.98;18.55;;;10.60;99.90;;;;;;5034382;28;20262;-63
2021/11/11 10:42:28;;;;;;;27.00;18.67;;;10.70;99.90;;;;;;5034873;28;20679;-63
2021/11/11 10:44:57;;;;;;;21.23;16.60;;;10.60;99.90;;;;;;5034517;28;20224;-64
2021/11/11 10:47:28;;;;;;;26.40;18.10;;;10.70;99.90;;;;;;5034874;28;20225;-65
2021/11/11 10:49:56;;;;;;;22.17;16.85;;;10.70;99.90;;;;;;5034099;28;20225;-63
2021/11/11 10:52:30;;;;;;;24.38;16.20;;;10.70;99.90;;;;;;5034642;28;20571;-63
2021/11/11 10:55:04;;;;;;;25.15;17.27;;;10.80;99.90;;;;;;5034314;28;20243;-63
2021/11/11 10:57:34;;;;;;;22.20;16.00;;;10.80;99.90;;;;;;5034539;28;20670;-64
2021/11/11 11:00:08;;;;;;;22.80;16.50;;;10.90;99.90;;;;;;5023981;28;20229;-64
2021/11/11 11:02:51;;;;;;;20.75;16.13;;;10.90;99.90;;;;;;5014726;28;20218;-64
2021/11/11 11:05:19;;;;;;;26.02;18.63;;;11.00;99.90;;;;;;5014169;28;20979;-64
2021/11/11 11:07:46;;;;;;;22.98;16.85;;;11.10;99.90;;;;;;5014569;28;20226;-64
2021/11/11 11:10:17;;;;;;;23.63;16.92;;;11.20;99.90;;;;;;5013957;28;20234;-65
2021/11/11 11:12:44;;;;;;;22.42;17.25;;;11.30;99.90;;;;;;5014653;28;20218;-65
2021/11/11 11:15:33;;;;;;;23.77;17.05;;;11.40;99.90;;;;;;5013923;28;20368;-64
2021/11/11 11:18:01;;;;;;;27.48;20.38;;;11.40;99.90;;;;;;5013971;28;20251;-64
2021/11/11 11:20:28;;;;;;;20.92;18.63;;;11.50;99.90;;;;;;5014277;28;20304;-64
2021/11/11 11:23:10;;;;;;;22.92;19.40;;;11.60;99.90;;;;;;5014014;28;20232;-64
2021/11/11 11:25:38;;;;;;;30.88;23.75;;;11.70;99.90;;;;;;5042097;28;20218;-66
2021/11/11 11:28:34;;;;;;;33.05;22.58;;;11.70;99.90;;;;;;5014076;28;20249;-64
2021/11/11 11:31:02;;;;;;;26.35;19.75;;;11.80;99.90;;;;;;5013876;28;20233;-64
2021/11/11 11:33:40;;;;;;;24.65;20.70;;;11.80;99.90;;;;;;5014096;28;20242;-64
2021/11/11 11:36:08;;;;;;;27.48;19.35;;;11.80;99.90;;;;;;5013622;28;20743;-64
2021/11/11 11:38:41;;;;;;;25.58;19.35;;;11.80;99.90;;;;;;5014041;28;20222;-64
2021/11/11 11:41:26;;;;;;;30.05;20.13;;;11.80;99.90;;;;;;5013732;28;20226;-64
2021/11/11 11:43:55;;;;;;;27.30;21.80;;;11.80;99.90;;;;;;5032078;28;20217;-64
2021/11/11 11:46:25;;;;;;;24.10;19.90;;;11.80;99.90;;;;;;5033488;28;20936;-64
2021/11/11 11:48:54;;;;;;;24.75;20.30;;;11.80;99.90;;;;;;5033724;28;20247;-64
2021/11/11 11:51:24;;;;;;;24.17;20.77;;;11.80;99.90;;;;;;5033342;28;20228;-64
2021/11/11 11:53:53;;;;;;;23.42;19.83;;;11.80;99.90;;;;;;5033355;28;20538;-64
2021/11/11 11:56:27;;;;;;;22.80;20.40;;;11.80;99.90;;;;;;5032960;28;20672;-64
2021/11/11 11:58:59;;;;;;;23.85;20.30;;;11.80;99.90;;;;;;5033441;28;20221;-64
2021/11/11 12:01:39;;;;;;;26.23;21.70;;;11.80;99.90;;;;;;5018015;28;20328;-64
2021/11/11 12:04:23;;;;;;;26.10;20.77;;;11.80;99.90;;;;;;5013151;28;20710;-64
2021/11/11 12:07:04;;;;;;;28.63;23.40;;;11.90;99.90;;;;;;5027517;28;20224;-65
2021/11/11 12:09:38;;;;;;;25.45;21.48;;;11.90;99.90;;;;;;5052880;28;20225;-65
2021/11/11 12:12:41;;;;;;;30.52;22.35;;;11.90;99.90;;;;;;5031328;28;20241;-65
2021/11/11 12:15:26;;;;;;;27.85;20.75;;;11.90;99.90;;;;;;5013330;28;20221;-66
2021/11/11 12:41:08;;;;;;;28.05;21.55;;;12.00;99.90;;;;;;5110074;27;20223;-66
2021/11/11 12:43:35;;;;;;;28.88;21.67;;;12.00;99.90;;;;;;5094291;28;20570;-66
2021/11/11 12:46:03;;;;;;;30.95;21.67;;;12.00;99.90;;;;;;5089745;28;20227;-66
2021/11/11 12:48:32;;;;;;;26.88;19.38;;;12.00;99.90;;;;;;5090093;28;20618;-66
2021/11/11 12:51:07;;;;;;;31.83;22.60;;;12.10;99.90;;;;;;5089221;28;20547;-66
2021/11/11 12:53:42;;;;;;;30.85;22.63;;;12.10;99.90;;;;;;5089942;28;20249;-66
2021/11/11 12:56:18;;;;;;;27.85;22.50;;;12.10;99.90;;;;;;5089500;28;20371;-66
2021/11/11 12:58:47;;;;;;;26.98;20.92;;;12.10;99.90;;;;;;5110051;27;20592;-66
2021/11/11 13:01:17;;;;;;;23.25;18.85;;;12.10;99.90;;;;;;5109293;27;20601;-66
2021/11/11 13:03:49;;;;;;;22.73;19.35;;;12.00;99.90;;;;;;5110154;27;20223;-66
2021/11/11 13:06:35;;;;;;;28.88;22.25;;;12.10;99.90;;;;;;5109621;27;20710;-66
2021/11/11 13:09:08;;;;;;;23.45;19.73;;;12.00;99.90;;;;;;5109511;27;20298;-66
2021/11/11 13:11:38;;;;;;;25.50;19.83;;;12.10;99.90;;;;;;5109879;27;20565;-66
2021/11/11 13:14:07;;;;;;;24.95;17.92;;;12.10;99.90;;;;;;5109480;27;20696;-66
2021/11/11 13:16:35;;;;;;;22.08;17.45;;;12.10;99.90;;;;;;5109816;27;20223;-66
2021/11/11 13:19:05;;;;;;;25.38;18.77;;;12.00;99.90;;;;;;5109191;27;20226;-66
2021/11/11 13:21:43;;;;;;;21.02;16.85;;;12.00;99.90;;;;;;5109562;27;20261;-66
2021/11/11 13:24:20;;;;;;;22.27;17.88;;;12.00;99.90;;;;;;5109208;27;20313;-66
2021/11/11 14:00:36;;;;;;;22.02;18.60;;;12.30;99.90;;;;;;5095748;27;20226;-66
2021/11/11 14:03:38;;;;;;;23.23;17.58;;;12.30;99.90;;;;;;5095525;28;20683;-66
2021/11/11 15:16:39;;;;;;;20.50;16.52;;;12.60;99.90;;;;;;5072516;28;20243;-65